createdAt,value
2022-08-23T00:00:58.828Z,0.00
2022-08-23T00:01:58.820Z,0.00
2022-08-23T00:02:58.860Z,0.00
2022-08-23T00:03:58.814Z,0.00
2022-08-23T00:05:09.368Z,0.00
2022-08-23T00:05:58.799Z,0.00
2022-08-23T00:06:58.793Z,0.00
2022-08-23T00:07:58.942Z,0.00
2022-08-23T00:08:58.784Z,0.00
2022-08-23T00:09:58.776Z,0.00
2022-08-23T00:10:58.772Z,0.00
2022-08-23T00:11:58.765Z,0.00
2022-08-23T00:12:58.762Z,0.00
2022-08-23T00:13:58.754Z,0.00
2022-08-23T00:14:58.750Z,0.00
2022-08-23T00:15:58.745Z,0.00
2022-08-23T00:16:58.789Z,0.00
2022-08-23T00:17:58.850Z,0.00
2022-08-23T00:18:59.189Z,0.00
2022-08-23T00:19:58.721Z,0.00
2022-08-23T00:20:58.718Z,0.00
2022-08-23T00:21:58.710Z,0.00
2022-08-23T00:22:58.706Z,0.00
2022-08-23T00:23:58.700Z,0.00
2022-08-23T00:24:58.697Z,0.00
2022-08-23T00:25:58.689Z,0.00
2022-08-23T00:26:58.683Z,0.00
2022-08-23T00:27:58.807Z,0.00
2022-08-23T00:28:58.672Z,0.00
2022-08-23T00:29:58.666Z,0.00
2022-08-23T00:30:58.663Z,0.00
2022-08-23T00:31:58.654Z,0.00
2022-08-23T00:32:58.650Z,0.00
2022-08-23T00:33:58.643Z,0.00
2022-08-23T00:34:58.639Z,0.00
2022-08-23T00:35:58.632Z,0.00
2022-08-23T00:36:58.629Z,0.00
2022-08-23T00:38:32.053Z,0.00
2022-08-23T00:38:58.619Z,0.00
2022-08-23T00:39:58.644Z,0.00
2022-08-23T00:40:58.606Z,0.00
2022-08-23T00:41:58.598Z,0.00
2022-08-23T00:42:58.594Z,0.00
2022-08-23T00:43:58.586Z,0.00
2022-08-23T00:44:58.583Z,0.00
2022-08-23T00:45:58.576Z,0.00
2022-08-23T00:46:58.571Z,0.00
2022-08-23T00:47:58.771Z,0.00
2022-08-23T00:48:58.560Z,0.00
2022-08-23T00:49:58.553Z,0.00
2022-08-23T00:50:58.547Z,0.00
2022-08-23T00:51:58.539Z,0.00
2022-08-23T00:52:58.538Z,0.00
2022-08-23T00:53:58.529Z,0.00
2022-08-23T00:54:58.525Z,0.00
2022-08-23T00:55:58.518Z,0.00
2022-08-23T00:56:58.514Z,0.00
2022-08-23T00:57:58.585Z,0.00
2022-08-23T00:58:58.502Z,0.00
2022-08-23T00:59:58.497Z,0.00
2022-08-23T01:00:58.490Z,0.00
2022-08-23T01:01:58.541Z,0.00
2022-08-23T01:02:58.518Z,0.00
2022-08-23T01:03:59.204Z,0.00
2022-08-23T01:04:58.467Z,0.00
2022-08-23T01:05:58.462Z,0.00
2022-08-23T01:06:58.455Z,0.00
2022-08-23T01:07:58.633Z,0.00
2022-08-23T01:08:58.445Z,0.00
2022-08-23T01:09:58.439Z,0.00
2022-08-23T01:10:58.431Z,0.00
2022-08-23T01:11:58.429Z,0.00
2022-08-23T01:12:58.419Z,0.00
2022-08-23T01:13:58.417Z,0.00
2022-08-23T01:14:58.407Z,0.00
2022-08-23T01:15:58.404Z,0.00
2022-08-23T01:16:58.397Z,0.00
2022-08-23T01:17:58.467Z,0.00
2022-08-23T01:18:58.384Z,0.00
2022-08-23T01:19:58.382Z,0.00
2022-08-23T01:20:58.372Z,0.00
2022-08-23T01:21:58.383Z,0.00
2022-08-23T01:22:58.358Z,0.00
2022-08-23T01:23:58.360Z,0.00
2022-08-23T01:25:05.972Z,0.00
2022-08-23T01:25:58.344Z,0.00
2022-08-23T01:26:58.335Z,0.00
2022-08-23T01:27:58.488Z,0.00
2022-08-23T01:28:58.324Z,0.00
2022-08-23T01:29:58.320Z,0.00
2022-08-23T01:30:58.313Z,0.00
2022-08-23T01:31:58.308Z,0.00
2022-08-23T01:32:58.299Z,0.00
2022-08-23T01:33:58.295Z,0.00
2022-08-23T01:34:58.287Z,0.00
2022-08-23T01:35:58.285Z,0.00
2022-08-23T01:36:58.275Z,0.00
2022-08-23T01:37:58.306Z,0.00
2022-08-23T01:38:58.313Z,0.00
2022-08-23T01:39:58.370Z,0.00
2022-08-23T01:40:58.253Z,0.00
2022-08-23T01:41:58.247Z,0.00
2022-08-23T01:42:58.237Z,0.00
2022-08-23T01:43:58.235Z,0.00
2022-08-23T01:44:58.227Z,0.00
2022-08-23T01:45:58.221Z,0.00
2022-08-23T01:46:58.214Z,0.00
2022-08-23T01:47:58.210Z,0.00
2022-08-23T01:48:58.202Z,0.00
2022-08-23T01:49:58.198Z,0.00
2022-08-23T01:50:58.189Z,0.00
2022-08-23T01:51:58.185Z,0.00
2022-08-23T01:52:58.350Z,0.00
2022-08-23T01:53:58.395Z,0.00
2022-08-23T01:54:58.164Z,0.00
2022-08-23T01:55:58.163Z,0.00
2022-08-23T01:56:58.153Z,0.00
2022-08-23T01:57:58.162Z,0.00
2022-08-23T01:58:58.139Z,0.00
2022-08-23T01:59:58.136Z,0.00
2022-08-23T02:00:58.127Z,0.00
2022-08-23T02:01:58.191Z,0.00
2022-08-23T02:02:58.165Z,0.00
2022-08-23T02:04:04.860Z,0.00
2022-08-23T02:04:58.103Z,0.00
2022-08-23T02:05:58.099Z,0.00
2022-08-23T02:06:58.091Z,0.00
2022-08-23T02:07:58.084Z,0.00
2022-08-23T02:08:58.079Z,0.00
2022-08-23T02:09:58.074Z,0.00
2022-08-23T02:10:58.064Z,0.00
2022-08-23T02:11:58.061Z,0.00
2022-08-23T02:12:58.052Z,0.00
2022-08-23T02:13:58.049Z,0.00
2022-08-23T02:14:58.039Z,0.00
2022-08-23T02:15:58.086Z,0.00
2022-08-23T02:17:04.020Z,0.00
2022-08-23T02:17:58.034Z,0.00
2022-08-23T02:18:58.014Z,0.00
2022-08-23T02:19:58.008Z,0.00
2022-08-23T02:20:58.122Z,0.00
2022-08-23T02:21:57.999Z,0.00
2022-08-23T02:22:58.082Z,0.00
2022-08-23T02:23:57.984Z,0.00
2022-08-23T02:24:57.976Z,0.00
2022-08-23T02:25:57.974Z,0.00
2022-08-23T02:26:57.965Z,0.00
2022-08-23T02:27:57.956Z,0.00
2022-08-23T02:28:57.949Z,0.00
2022-08-23T02:29:57.946Z,0.00
2022-08-23T02:30:58.061Z,0.00
2022-08-23T02:31:57.982Z,0.00
2022-08-23T02:32:57.923Z,0.00
2022-08-23T02:33:57.919Z,0.00
2022-08-23T02:35:05.372Z,0.00
2022-08-23T02:35:57.905Z,0.00
2022-08-23T02:36:57.899Z,0.00
2022-08-23T02:37:57.923Z,0.00
2022-08-23T02:38:57.884Z,0.00
2022-08-23T02:39:57.935Z,0.00
2022-08-23T02:41:01.057Z,0.00
2022-08-23T02:41:57.867Z,0.00
2022-08-23T02:42:57.857Z,0.00
2022-08-23T02:43:57.853Z,0.00
2022-08-23T02:44:57.844Z,0.00
2022-08-23T02:45:57.840Z,0.00
2022-08-23T02:46:57.830Z,0.00
2022-08-23T02:47:57.922Z,0.00
2022-08-23T02:48:57.821Z,0.00
2022-08-23T02:49:57.912Z,0.00
2022-08-23T02:50:57.803Z,0.00
2022-08-23T02:51:57.798Z,0.00
2022-08-23T02:52:57.790Z,0.00
2022-08-23T02:53:57.786Z,0.00
2022-08-23T02:54:58.393Z,0.00
2022-08-23T02:55:57.773Z,0.00
2022-08-23T02:56:57.766Z,0.00
2022-08-23T02:57:57.817Z,0.00
2022-08-23T02:58:57.751Z,0.00
2022-08-23T02:59:57.747Z,0.00
2022-08-23T03:00:57.736Z,0.00
2022-08-23T03:01:57.763Z,0.00
2022-08-23T03:02:57.725Z,0.00
2022-08-23T03:03:57.720Z,0.00
2022-08-23T03:04:57.712Z,0.00
2022-08-23T03:05:58.396Z,0.00
2022-08-23T03:06:57.695Z,0.00
2022-08-23T03:07:57.712Z,0.00
2022-08-23T03:08:57.691Z,0.00
2022-08-23T03:09:57.678Z,0.00
2022-08-23T03:10:57.670Z,0.00
2022-08-23T03:11:57.663Z,0.00
2022-08-23T03:12:57.657Z,0.00
2022-08-23T03:13:57.658Z,0.00
2022-08-23T03:14:57.640Z,0.00
2022-08-23T03:15:57.639Z,0.00
2022-08-23T03:16:58.401Z,0.00
2022-08-23T03:17:57.709Z,0.00
2022-08-23T03:18:57.632Z,0.00
2022-08-23T03:19:57.610Z,0.00
2022-08-23T03:20:57.600Z,0.00
2022-08-23T03:21:57.597Z,0.00
2022-08-23T03:22:57.588Z,0.00
2022-08-23T03:23:57.585Z,0.00
2022-08-23T03:24:57.573Z,0.00
2022-08-23T03:25:57.569Z,0.00
2022-08-23T03:26:57.558Z,0.00
2022-08-23T03:27:57.624Z,0.00
2022-08-23T03:28:57.544Z,0.00
2022-08-23T03:29:57.542Z,0.00
2022-08-23T03:30:57.534Z,0.00
2022-08-23T03:31:57.528Z,0.00
2022-08-23T03:32:57.520Z,0.00
2022-08-23T03:33:57.515Z,0.00
2022-08-23T03:34:57.504Z,0.00
2022-08-23T03:35:57.499Z,0.00
2022-08-23T03:36:57.494Z,0.00
2022-08-23T03:37:57.538Z,0.00
2022-08-23T03:38:57.477Z,0.00
2022-08-23T03:39:57.537Z,0.00
2022-08-23T03:40:57.462Z,0.00
2022-08-23T03:41:57.458Z,0.00
2022-08-23T03:42:57.497Z,0.00
2022-08-23T03:43:57.443Z,0.00
2022-08-23T03:45:02.567Z,0.00
2022-08-23T03:45:57.431Z,0.00
2022-08-23T03:46:57.420Z,0.00
2022-08-23T03:47:57.419Z,0.00
2022-08-23T03:48:57.405Z,0.00
2022-08-23T03:49:57.401Z,0.00
2022-08-23T03:50:57.390Z,0.00
2022-08-23T03:51:57.400Z,0.00
2022-08-23T03:52:57.477Z,0.00
2022-08-23T03:53:57.374Z,0.00
2022-08-23T03:54:57.363Z,0.00
2022-08-23T03:55:57.359Z,0.00
2022-08-23T03:56:57.349Z,0.00
2022-08-23T03:57:57.344Z,0.00
2022-08-23T03:58:57.334Z,0.00
2022-08-23T03:59:57.329Z,0.00
2022-08-23T04:00:57.321Z,0.00
2022-08-23T04:01:57.359Z,0.00
2022-08-23T04:02:57.304Z,0.00
2022-08-23T04:03:57.300Z,0.00
2022-08-23T04:04:57.291Z,0.00
2022-08-23T04:05:57.288Z,0.00
2022-08-23T04:06:57.275Z,0.00
2022-08-23T04:07:57.354Z,0.00
2022-08-23T04:08:57.274Z,0.00
2022-08-23T04:09:57.258Z,0.00
2022-08-23T04:10:57.248Z,0.00
2022-08-23T04:11:57.243Z,0.00
2022-08-23T04:12:57.334Z,0.00
2022-08-23T04:13:57.228Z,0.00
2022-08-23T04:14:57.218Z,0.00
2022-08-23T04:15:57.214Z,0.00
2022-08-23T04:16:57.206Z,0.00
2022-08-23T04:17:57.273Z,0.00
2022-08-23T04:18:57.189Z,0.00
2022-08-23T04:19:57.185Z,0.00
2022-08-23T04:20:57.175Z,0.00
2022-08-23T04:21:57.170Z,0.00
2022-08-23T04:22:57.367Z,0.00
2022-08-23T04:23:57.155Z,0.00
2022-08-23T04:24:57.145Z,0.00
2022-08-23T04:25:57.143Z,0.00
2022-08-23T04:26:57.129Z,0.00
2022-08-23T04:27:57.194Z,0.00
2022-08-23T04:28:57.118Z,0.00
2022-08-23T04:29:57.111Z,0.00
2022-08-23T04:30:57.104Z,0.00
2022-08-23T04:31:57.096Z,0.00
2022-08-23T04:32:57.088Z,0.00
2022-08-23T04:33:57.084Z,5.63
2022-08-23T04:34:57.072Z,5.63
2022-08-23T04:35:57.066Z,5.63
2022-08-23T04:36:57.058Z,5.63
2022-08-23T04:37:57.058Z,5.63
2022-08-23T04:38:57.045Z,5.63
2022-08-23T04:39:57.069Z,5.63
2022-08-23T04:40:57.027Z,5.63
2022-08-23T04:41:57.024Z,11.25
2022-08-23T04:42:57.015Z,11.25
2022-08-23T04:43:57.007Z,11.25
2022-08-23T04:44:56.997Z,11.25
2022-08-23T04:45:56.995Z,11.25
2022-08-23T04:47:57.039Z,16.88
2022-08-23T04:48:56.970Z,16.88
2022-08-23T04:49:56.961Z,16.88
2022-08-23T04:50:56.956Z,16.88
2022-08-23T04:51:56.946Z,16.88
2022-08-23T04:52:56.991Z,16.88
2022-08-23T04:53:56.930Z,22.50
2022-08-23T04:54:56.925Z,22.50
2022-08-23T04:55:56.931Z,22.50
2022-08-23T04:56:56.910Z,22.50
2022-08-23T04:57:56.903Z,22.50
2022-08-23T04:58:56.895Z,28.13
2022-08-23T04:59:56.887Z,28.13
2022-08-23T05:00:56.947Z,28.13
2022-08-23T05:01:56.872Z,28.13
2022-08-23T05:02:56.871Z,28.13
2022-08-23T05:03:56.860Z,28.13
2022-08-23T05:04:56.850Z,33.75
2022-08-23T05:05:56.841Z,33.75
2022-08-23T05:06:56.835Z,39.38
2022-08-23T05:07:56.841Z,45.00
2022-08-23T05:08:56.821Z,45.00
2022-08-23T05:09:56.812Z,50.63
2022-08-23T05:10:56.806Z,50.63
2022-08-23T05:11:56.795Z,50.63
2022-08-23T05:12:56.791Z,56.25
2022-08-23T05:13:56.786Z,56.25
2022-08-23T05:14:56.777Z,56.25
2022-08-23T05:15:56.766Z,56.25
2022-08-23T05:16:56.772Z,56.25
2022-08-23T05:17:56.755Z,61.88
2022-08-23T05:18:56.745Z,61.88
2022-08-23T05:19:56.843Z,61.88
2022-08-23T05:20:56.732Z,61.88
2022-08-23T05:21:57.299Z,67.50
2022-08-23T05:22:56.718Z,67.50
2022-08-23T05:23:56.714Z,67.50
2022-08-23T05:24:56.705Z,67.50
2022-08-23T05:25:56.702Z,67.50
2022-08-23T05:26:56.690Z,67.50
2022-08-23T05:27:56.684Z,73.13
2022-08-23T05:28:56.679Z,73.13
2022-08-23T05:29:56.672Z,73.13
2022-08-23T05:30:57.227Z,73.13
2022-08-23T05:31:56.659Z,73.13
2022-08-23T05:32:56.650Z,73.13
2022-08-23T05:33:56.646Z,73.13
2022-08-23T05:34:56.638Z,78.75
2022-08-23T05:35:56.632Z,78.75
2022-08-23T05:36:56.656Z,78.75
2022-08-23T05:37:56.619Z,78.75
2022-08-23T05:38:56.612Z,78.75
2022-08-23T05:39:56.643Z,78.75
2022-08-23T05:40:56.650Z,84.38
2022-08-23T05:41:56.595Z,78.75
2022-08-23T05:42:56.585Z,84.38
2022-08-23T05:43:56.580Z,84.38
2022-08-23T05:44:56.572Z,84.38
2022-08-23T05:45:56.570Z,84.38
2022-08-23T05:46:56.558Z,84.38
2022-08-23T05:47:56.561Z,84.38
2022-08-23T05:48:56.547Z,90.00
2022-08-23T05:49:56.543Z,90.00
2022-08-23T05:50:56.534Z,90.00
2022-08-23T05:51:56.531Z,90.00
2022-08-23T05:52:56.523Z,90.00
2022-08-23T05:53:56.519Z,90.00
2022-08-23T05:54:56.509Z,90.00
2022-08-23T05:55:56.505Z,95.63
2022-08-23T05:56:56.502Z,95.63
2022-08-23T05:57:56.494Z,95.63
2022-08-23T05:58:59.660Z,95.63
2022-08-23T05:59:56.482Z,95.63
2022-08-23T06:00:56.487Z,95.63
2022-08-23T06:01:56.474Z,95.63
2022-08-23T06:02:56.461Z,95.63
2022-08-23T06:03:56.458Z,95.63
2022-08-23T06:04:57.573Z,95.63
2022-08-23T06:05:56.447Z,95.63
2022-08-23T06:06:56.446Z,101.25
2022-08-23T06:07:56.437Z,101.25
2022-08-23T06:08:56.435Z,101.25
2022-08-23T06:09:56.425Z,101.25
2022-08-23T06:10:56.416Z,101.25
2022-08-23T06:11:56.413Z,101.25
2022-08-23T06:12:56.406Z,101.25
2022-08-23T06:13:56.437Z,101.25
2022-08-23T06:14:56.394Z,101.25
2022-08-23T06:15:56.390Z,101.25
2022-08-23T06:16:56.622Z,101.25
2022-08-23T06:17:56.452Z,101.25
2022-08-23T06:18:56.372Z,101.25
2022-08-23T06:19:56.369Z,101.25
2022-08-23T06:20:56.363Z,101.25
2022-08-23T06:21:56.357Z,101.25
2022-08-23T06:22:56.354Z,101.25
2022-08-23T06:23:56.347Z,101.25
2022-08-23T06:24:56.340Z,106.88
2022-08-23T06:25:56.336Z,106.88
2022-08-23T06:26:56.327Z,106.88
2022-08-23T06:27:56.467Z,106.88
2022-08-23T06:28:56.400Z,106.88
2022-08-23T06:29:56.316Z,106.88
2022-08-23T06:30:56.580Z,106.88
2022-08-23T06:31:56.302Z,106.88
2022-08-23T06:32:56.399Z,106.88
2022-08-23T06:33:56.541Z,106.88
2022-08-23T06:35:31.443Z,106.88
2022-08-23T06:35:56.282Z,106.88
2022-08-23T06:36:56.277Z,106.88
2022-08-23T06:37:56.784Z,106.88
2022-08-23T06:38:56.264Z,106.88
2022-08-23T06:39:56.272Z,106.88
2022-08-23T06:40:56.254Z,106.88
2022-08-23T06:41:56.254Z,106.88
2022-08-23T06:42:56.244Z,106.88
2022-08-23T06:43:56.242Z,106.88
2022-08-23T06:44:56.236Z,106.88
2022-08-23T06:45:58.353Z,106.88
2022-08-23T06:46:56.377Z,106.88
2022-08-23T06:47:56.283Z,106.88
2022-08-23T06:48:56.217Z,106.88
2022-08-23T06:49:57.688Z,106.88
2022-08-23T06:50:56.210Z,106.88
2022-08-23T06:51:56.204Z,106.88
2022-08-23T06:52:56.197Z,106.88
2022-08-23T06:53:56.195Z,106.88
2022-08-23T06:54:57.773Z,106.88
2022-08-23T06:55:56.185Z,101.25
2022-08-23T06:56:56.179Z,101.25
2022-08-23T06:57:56.176Z,101.25
2022-08-23T06:58:56.271Z,101.25
2022-08-23T06:59:56.167Z,106.88
2022-08-23T07:00:57.618Z,106.88
2022-08-23T07:01:56.309Z,106.88
2022-08-23T07:02:56.287Z,106.88
2022-08-23T07:03:56.149Z,106.88
2022-08-23T07:04:56.143Z,106.88
2022-08-23T07:05:56.141Z,106.88
2022-08-23T07:06:56.148Z,106.88
2022-08-23T07:07:56.133Z,106.88
2022-08-23T07:08:56.158Z,106.88
2022-08-23T07:09:56.124Z,106.88
2022-08-23T07:10:56.118Z,106.88
2022-08-23T07:11:56.222Z,106.88
2022-08-23T07:12:56.108Z,106.88
2022-08-23T07:13:56.106Z,101.25
2022-08-23T07:14:56.101Z,101.25
2022-08-23T07:15:56.139Z,101.25
2022-08-23T07:16:56.093Z,101.25
2022-08-23T07:17:56.090Z,101.25
2022-08-23T07:18:56.085Z,101.25
2022-08-23T07:19:56.083Z,101.25
2022-08-23T07:20:56.078Z,101.25
2022-08-23T07:21:56.075Z,101.25
2022-08-23T07:22:56.165Z,101.25
2022-08-23T07:23:56.071Z,101.25
2022-08-23T07:24:56.062Z,101.25
2022-08-23T07:25:56.061Z,101.25
2022-08-23T07:26:56.054Z,101.25
2022-08-23T07:27:56.159Z,101.25
2022-08-23T07:28:56.047Z,101.25
2022-08-23T07:29:56.046Z,101.25
2022-08-23T07:30:56.048Z,101.25
2022-08-23T07:31:56.101Z,101.25
2022-08-23T07:32:56.088Z,101.25
2022-08-23T07:33:56.031Z,101.25
2022-08-23T07:34:56.024Z,101.25
2022-08-23T07:35:56.025Z,101.25
2022-08-23T07:36:56.021Z,101.25
2022-08-23T07:37:56.038Z,101.25
2022-08-23T07:38:56.112Z,101.25
2022-08-23T07:39:57.422Z,101.25
2022-08-23T07:40:56.014Z,101.25
2022-08-23T07:41:56.004Z,101.25
2022-08-23T07:42:56.045Z,101.25
2022-08-23T07:43:55.999Z,101.25
2022-08-23T07:44:56.043Z,101.25
2022-08-23T07:45:55.992Z,101.25
2022-08-23T07:46:56.101Z,101.25
2022-08-23T07:47:55.986Z,101.25
2022-08-23T07:48:55.981Z,101.25
2022-08-23T07:49:55.981Z,101.25
2022-08-23T07:50:58.187Z,101.25
2022-08-23T07:51:55.973Z,101.25
2022-08-23T07:52:55.969Z,101.25
2022-08-23T07:53:55.967Z,101.25
2022-08-23T07:54:55.963Z,101.25
2022-08-23T07:55:55.962Z,101.25
2022-08-23T07:56:55.956Z,101.25
2022-08-23T07:57:56.027Z,101.25
2022-08-23T07:58:55.950Z,101.25
2022-08-23T07:59:55.956Z,101.25
2022-08-23T08:00:55.946Z,101.25
2022-08-23T08:01:55.995Z,101.25
2022-08-23T08:02:56.065Z,101.25
2022-08-23T08:03:55.949Z,101.25
2022-08-23T08:04:55.935Z,101.25
2022-08-23T08:05:55.935Z,101.25
2022-08-23T08:07:17.715Z,101.25
2022-08-23T08:07:55.964Z,101.25
2022-08-23T08:08:55.926Z,101.25
2022-08-23T08:09:55.925Z,101.25
2022-08-23T08:10:55.920Z,101.25
2022-08-23T08:11:55.920Z,101.25
2022-08-23T08:12:55.914Z,106.88
2022-08-23T08:13:55.915Z,106.88
2022-08-23T08:14:55.912Z,106.88
2022-08-23T08:15:55.951Z,106.88
2022-08-23T08:16:55.907Z,106.88
2022-08-23T08:17:55.935Z,106.88
2022-08-23T08:18:55.902Z,106.88
2022-08-23T08:19:55.901Z,106.88
2022-08-23T08:20:55.898Z,106.88
2022-08-23T08:21:55.901Z,106.88
2022-08-23T08:22:58.657Z,106.88
2022-08-23T08:23:55.897Z,106.88
2022-08-23T08:24:55.893Z,106.88
2022-08-23T08:25:55.889Z,106.88
2022-08-23T08:26:55.885Z,106.88
2022-08-23T08:27:55.942Z,106.88
2022-08-23T08:28:55.883Z,106.88
2022-08-23T08:29:55.882Z,112.50
2022-08-23T08:30:55.952Z,106.88
2022-08-23T08:31:55.876Z,106.88
2022-08-23T08:32:55.873Z,106.88
2022-08-23T08:33:55.874Z,106.88
2022-08-23T08:34:55.870Z,106.88
2022-08-23T08:35:59.342Z,106.88
2022-08-23T08:36:57.304Z,106.88
2022-08-23T08:38:58.786Z,106.88
2022-08-23T08:39:55.948Z,106.88
2022-08-23T08:40:55.876Z,106.88
2022-08-23T08:41:58.786Z,106.88
2022-08-23T08:42:55.874Z,106.88
2022-08-23T08:43:55.853Z,106.88
2022-08-23T08:44:55.853Z,106.88
2022-08-23T08:45:58.938Z,106.88
2022-08-23T08:46:55.849Z,106.88
2022-08-23T08:47:55.886Z,106.88
2022-08-23T08:48:55.848Z,106.88
2022-08-23T08:49:55.843Z,106.88
2022-08-23T08:50:55.841Z,106.88
2022-08-23T08:51:55.839Z,106.88
2022-08-23T08:52:55.840Z,106.88
2022-08-23T08:53:55.835Z,106.88
2022-08-23T08:54:55.883Z,106.88
2022-08-23T08:55:55.831Z,106.88
2022-08-23T08:56:55.832Z,106.88
2022-08-23T08:57:55.890Z,106.88
2022-08-23T08:58:55.829Z,106.88
2022-08-23T08:59:55.828Z,106.88
2022-08-23T09:00:55.824Z,106.88
2022-08-23T09:01:55.852Z,106.88
2022-08-23T09:02:55.905Z,106.88
2022-08-23T09:03:55.819Z,106.88
2022-08-23T09:04:55.819Z,106.88
2022-08-23T09:05:56.443Z,106.88
2022-08-23T09:06:55.815Z,106.88
2022-08-23T09:07:55.886Z,106.88
2022-08-23T09:08:55.812Z,106.88
2022-08-23T09:09:55.808Z,106.88
2022-08-23T09:10:58.368Z,101.25
2022-08-23T09:11:55.806Z,101.25
2022-08-23T09:12:55.809Z,106.88
2022-08-23T09:13:55.805Z,106.88
2022-08-23T09:14:55.802Z,101.25
2022-08-23T09:15:55.880Z,101.25
2022-08-23T09:16:55.802Z,101.25
2022-08-23T09:17:56.070Z,101.25
2022-08-23T09:18:55.797Z,101.25
2022-08-23T09:19:55.793Z,101.25
2022-08-23T09:20:55.796Z,101.25
2022-08-23T09:21:55.796Z,101.25
2022-08-23T09:22:55.793Z,101.25
2022-08-23T09:24:00.347Z,101.25
2022-08-23T09:24:55.789Z,101.25
2022-08-23T09:25:59.888Z,101.25
2022-08-23T09:26:55.787Z,101.25
2022-08-23T09:27:55.838Z,101.25
2022-08-23T09:28:55.785Z,101.25
2022-08-23T09:29:55.782Z,101.25
2022-08-23T09:30:55.848Z,101.25
2022-08-23T09:31:55.779Z,101.25
2022-08-23T09:32:55.880Z,101.25
2022-08-23T09:33:55.776Z,101.25
2022-08-23T09:34:55.774Z,101.25
2022-08-23T09:35:55.775Z,101.25
2022-08-23T09:36:55.772Z,101.25
2022-08-23T09:37:55.829Z,101.25
2022-08-23T09:38:55.771Z,101.25
2022-08-23T09:39:55.819Z,101.25
2022-08-23T09:40:55.767Z,101.25
2022-08-23T09:41:55.767Z,101.25
2022-08-23T09:42:55.764Z,101.25
2022-08-23T09:43:55.765Z,101.25
2022-08-23T09:44:55.763Z,101.25
2022-08-23T09:45:55.826Z,101.25
2022-08-23T09:46:55.860Z,101.25
2022-08-23T09:47:55.819Z,101.25
2022-08-23T09:48:55.758Z,101.25
2022-08-23T09:49:55.760Z,101.25
2022-08-23T09:50:55.757Z,101.25
2022-08-23T09:51:55.757Z,101.25
2022-08-23T09:52:55.808Z,101.25
2022-08-23T09:53:55.755Z,101.25
2022-08-23T09:54:56.016Z,101.25
2022-08-23T09:55:55.754Z,101.25
2022-08-23T09:56:55.749Z,101.25
2022-08-23T09:57:55.751Z,101.25
2022-08-23T09:58:55.749Z,101.25
2022-08-23T09:59:55.754Z,101.25
2022-08-23T10:00:55.949Z,101.25
2022-08-23T10:01:55.815Z,101.25
2022-08-23T10:02:55.786Z,101.25
2022-08-23T10:03:55.746Z,101.25
2022-08-23T10:04:55.816Z,101.25
2022-08-23T10:05:55.749Z,101.25
2022-08-23T10:06:55.741Z,101.25
2022-08-23T10:07:55.743Z,101.25
2022-08-23T10:08:55.740Z,101.25
2022-08-23T10:09:55.742Z,101.25
2022-08-23T10:10:55.737Z,101.25
2022-08-23T10:11:55.739Z,101.25
2022-08-23T10:12:56.009Z,101.25
2022-08-23T10:13:55.737Z,101.25
2022-08-23T10:14:55.734Z,101.25
2022-08-23T10:15:55.802Z,101.25
2022-08-23T10:16:55.733Z,101.25
2022-08-23T10:17:55.763Z,106.88
2022-08-23T10:18:55.730Z,101.25
2022-08-23T10:19:55.731Z,101.25
2022-08-23T10:20:55.729Z,101.25
2022-08-23T10:21:55.729Z,101.25
2022-08-23T10:22:55.726Z,101.25
2022-08-23T10:23:55.727Z,101.25
2022-08-23T10:24:55.725Z,101.25
2022-08-23T10:25:55.726Z,101.25
2022-08-23T10:26:55.720Z,101.25
2022-08-23T10:27:55.786Z,101.25
2022-08-23T10:28:55.728Z,101.25
2022-08-23T10:29:55.720Z,101.25
2022-08-23T10:30:55.753Z,106.88
2022-08-23T10:31:59.172Z,106.88
2022-08-23T10:32:55.715Z,106.88
2022-08-23T10:33:55.713Z,106.88
2022-08-23T10:34:55.712Z,106.88
2022-08-23T10:35:55.713Z,106.88
2022-08-23T10:36:55.707Z,106.88
2022-08-23T10:37:55.789Z,106.88
2022-08-23T10:38:55.705Z,106.88
2022-08-23T10:39:58.220Z,106.88
2022-08-23T10:40:55.704Z,106.88
2022-08-23T10:41:55.701Z,106.88
2022-08-23T10:42:55.698Z,106.88
2022-08-23T10:43:55.701Z,106.88
2022-08-23T10:44:55.698Z,106.88
2022-08-23T10:46:00.219Z,106.88
2022-08-23T10:46:55.692Z,106.88
2022-08-23T10:47:55.750Z,106.88
2022-08-23T10:48:55.691Z,106.88
2022-08-23T10:49:55.695Z,106.88
2022-08-23T10:50:56.120Z,106.88
2022-08-23T10:51:55.688Z,112.50
2022-08-23T10:52:55.786Z,106.88
2022-08-23T10:53:55.686Z,106.88
2022-08-23T10:54:55.683Z,106.88
2022-08-23T10:55:55.685Z,106.88
2022-08-23T10:56:55.682Z,106.88
2022-08-23T10:57:55.737Z,106.88
2022-08-23T10:58:55.681Z,106.88
2022-08-23T10:59:55.679Z,106.88
2022-08-23T11:00:55.676Z,106.88
2022-08-23T11:01:55.737Z,106.88
2022-08-23T11:02:55.753Z,106.88
2022-08-23T11:03:55.681Z,106.88
2022-08-23T11:04:55.672Z,106.88
2022-08-23T11:05:55.673Z,106.88
2022-08-23T11:06:55.670Z,106.88
2022-08-23T11:07:55.712Z,106.88
2022-08-23T11:08:55.668Z,106.88
2022-08-23T11:09:55.668Z,106.88
2022-08-23T11:10:57.030Z,112.50
2022-08-23T11:11:55.665Z,112.50
2022-08-23T11:12:55.662Z,112.50
2022-08-23T11:13:55.664Z,112.50
2022-08-23T11:14:55.662Z,112.50
2022-08-23T11:15:55.687Z,112.50
2022-08-23T11:16:55.660Z,112.50
2022-08-23T11:17:55.685Z,112.50
2022-08-23T11:18:55.657Z,112.50
2022-08-23T11:19:55.672Z,112.50
2022-08-23T11:20:55.656Z,112.50
2022-08-23T11:21:55.656Z,112.50
2022-08-23T11:22:55.653Z,112.50
2022-08-23T11:23:55.656Z,112.50
2022-08-23T11:24:55.650Z,112.50
2022-08-23T11:25:55.652Z,112.50
2022-08-23T11:26:55.647Z,112.50
2022-08-23T11:27:55.650Z,112.50
2022-08-23T11:28:55.648Z,112.50
2022-08-23T11:29:55.648Z,112.50
2022-08-23T11:30:55.696Z,112.50
2022-08-23T11:31:55.647Z,112.50
2022-08-23T11:32:55.643Z,112.50
2022-08-23T11:33:55.644Z,112.50
2022-08-23T11:34:55.641Z,112.50
2022-08-23T11:35:55.641Z,112.50
2022-08-23T11:36:55.638Z,112.50
2022-08-23T11:37:55.641Z,112.50
2022-08-23T11:38:55.644Z,112.50
2022-08-23T11:39:55.751Z,112.50
2022-08-23T11:40:55.638Z,112.50
2022-08-23T11:41:55.637Z,112.50
2022-08-23T11:42:55.633Z,112.50
2022-08-23T11:43:55.635Z,112.50
2022-08-23T11:44:55.634Z,112.50
2022-08-23T11:45:55.655Z,118.13
2022-08-23T11:46:55.631Z,118.13
2022-08-23T11:47:55.786Z,118.13
2022-08-23T11:48:55.630Z,118.13
2022-08-23T11:49:55.632Z,118.13
2022-08-23T11:50:58.282Z,118.13
2022-08-23T11:51:55.629Z,118.13
2022-08-23T11:52:55.626Z,118.13
2022-08-23T11:53:55.627Z,118.13
2022-08-23T11:54:55.624Z,118.13
2022-08-23T11:55:55.626Z,118.13
2022-08-23T11:56:55.625Z,118.13
2022-08-23T11:57:55.725Z,118.13
2022-08-23T11:58:55.622Z,118.13
2022-08-23T11:59:55.624Z,118.13
2022-08-23T12:00:55.624Z,118.13
2022-08-23T12:01:55.624Z,118.13
2022-08-23T12:02:55.721Z,118.13
2022-08-23T12:03:55.813Z,118.13
2022-08-23T12:04:55.625Z,118.13
2022-08-23T12:05:55.622Z,118.13
2022-08-23T12:06:55.618Z,118.13
2022-08-23T12:07:55.677Z,118.13
2022-08-23T12:08:55.620Z,118.13
2022-08-23T12:09:55.619Z,118.13
2022-08-23T12:10:55.666Z,118.13
2022-08-23T12:11:55.626Z,118.13
2022-08-23T12:12:55.616Z,118.13
2022-08-23T12:13:55.616Z,118.13
2022-08-23T12:14:55.614Z,118.13
2022-08-23T12:15:55.683Z,118.13
2022-08-23T12:16:56.802Z,118.13
2022-08-23T12:17:55.618Z,118.13
2022-08-23T12:18:55.610Z,118.13
2022-08-23T12:19:55.613Z,118.13
2022-08-23T12:20:55.611Z,118.13
2022-08-23T12:21:55.613Z,118.13
2022-08-23T12:22:55.611Z,118.13
2022-08-23T12:23:55.612Z,118.13
2022-08-23T12:24:55.609Z,118.13
2022-08-23T12:25:55.612Z,118.13
2022-08-23T12:26:55.608Z,118.13
2022-08-23T12:27:55.624Z,118.13
2022-08-23T12:28:55.606Z,118.13
2022-08-23T12:29:55.610Z,118.13
2022-08-23T12:30:55.657Z,118.13
2022-08-23T12:31:55.621Z,118.13
2022-08-23T12:32:55.606Z,118.13
2022-08-23T12:33:55.608Z,118.13
2022-08-23T12:34:55.603Z,118.13
2022-08-23T12:35:55.606Z,118.13
2022-08-23T12:36:55.606Z,118.13
2022-08-23T12:37:55.654Z,118.13
2022-08-23T12:38:55.601Z,118.13
2022-08-23T12:39:55.650Z,118.13
2022-08-23T12:40:56.854Z,118.13
2022-08-23T12:41:55.604Z,118.13
2022-08-23T12:42:55.715Z,118.13
2022-08-23T12:43:55.603Z,118.13
2022-08-23T12:44:55.601Z,118.13
2022-08-23T12:45:55.672Z,118.13
2022-08-23T12:46:55.606Z,118.13
2022-08-23T12:47:55.604Z,118.13
2022-08-23T12:48:55.599Z,118.13
2022-08-23T12:49:55.602Z,118.13
2022-08-23T12:50:55.597Z,118.13